Airport View

Enter AWOS ICAO identifier for current METAR.

ex. KFNL

CYQH 261100Z 00000KT 30SM SCT120 BKN210 11/08 A2998 RMK AC4CI1 SLP157 DENSITY ALT 2300FT

26 Jun 2019 11:49

Other Area AWOS: CWZV

TAF CYQH 260557Z 2606/2618 28005KT P6SM FEW040 SCT140 BKN200 FM261200 VRB03KT P6SM SCT080 BKN240 TEMPO 2612/2618 P6SM -SHRA BKN080 RMK NXT FCST BY 261200Z